Time;durP1;ratioP1;P1;durP2;ratioP2;P2;SDS_P1;SDS_P2;PMS_P1;PMS_P2;Temp;Humidity;BMP_temperature;BMP_pressure;BME280_temperature;BME280_humidity;BME280_pressure;Samples;Min_cycle;Max_cycle;Signal;HPM_P1;HPM_P2
2023/02/03 00:02:02;;;;;;;25.00;12.65;;;;;;;;;;5028786;28;20041;-72
2023/02/03 00:04:28;;;;;;;27.80;13.85;;;;;;;;;;5043399;28;20033;-73
2023/02/03 00:06:54;;;;;;;27.20;12.68;;;;;;;;;;5035655;28;20074;-73
2023/02/03 00:09:20;;;;;;;25.58;11.40;;;;;;;;;;5036549;28;20066;-73
2023/02/03 00:11:46;;;;;;;33.63;16.13;;;;;;;;;;5020812;28;20049;-72
2023/02/03 00:14:12;;;;;;;31.33;15.48;;;;;;;;;;5036964;28;20036;-72
2023/02/03 00:16:38;;;;;;;34.78;17.92;;;;;;;;;;5021056;28;20574;-72
2023/02/03 00:19:04;;;;;;;30.13;15.75;;;;;;;;;;5035822;28;20060;-73
2023/02/03 00:21:30;;;;;;;25.77;13.65;;;;;;;;;;5040731;28;20033;-72
2023/02/03 00:23:56;;;;;;;25.73;13.40;;;;;;;;;;5042970;28;20056;-73
2023/02/03 00:26:24;;;;;;;27.08;12.63;;;;;;;;;;5038852;28;20040;-72
2023/02/03 00:28:50;;;;;;;30.63;13.05;;;;;;;;;;5040790;28;20041;-73
2023/02/03 00:31:17;;;;;;;26.00;11.90;;;;;;;;;;5037909;28;20091;-72
2023/02/03 00:33:43;;;;;;;23.95;12.23;;;;;;;;;;5039597;28;20041;-72
2023/02/03 00:36:09;;;;;;;24.73;12.18;;;;;;;;;;5043535;28;20498;-73
2023/02/03 00:38:35;;;;;;;19.80;12.32;;;;;;;;;;5040954;28;20239;-73
2023/02/03 00:41:01;;;;;;;25.95;13.95;;;;;;;;;;5038647;28;20033;-72
2023/02/03 00:43:28;;;;;;;43.55;25.40;;;;;;;;;;5037076;28;20056;-73
2023/02/03 00:45:54;;;;;;;32.05;18.40;;;;;;;;;;5028331;28;20087;-72
2023/02/03 00:48:20;;;;;;;28.42;15.18;;;;;;;;;;5052081;28;20657;-72
2023/02/03 00:50:46;;;;;;;24.92;12.73;;;;;;;;;;5040946;28;20109;-72
2023/02/03 00:53:12;;;;;;;25.13;12.70;;;;;;;;;;5044068;28;20405;-72
2023/02/03 00:55:38;;;;;;;21.95;12.05;;;;;;;;;;5039839;28;20044;-73
2023/02/03 00:58:04;;;;;;;22.83;12.52;;;;;;;;;;5043589;28;20541;-73
2023/02/03 01:00:30;;;;;;;21.92;12.48;;;;;;;;;;5043283;28;20041;-73
2023/02/03 01:02:56;;;;;;;23.35;13.00;;;;;;;;;;5034507;28;20033;-72
2023/02/03 01:05:23;;;;;;;23.38;12.38;;;;;;;;;;5037613;28;20033;-72
2023/02/03 01:07:49;;;;;;;22.73;11.95;;;;;;;;;;5039014;28;20469;-72
2023/02/03 01:10:15;;;;;;;25.15;11.75;;;;;;;;;;5039323;28;20033;-73
2023/02/03 01:12:41;;;;;;;24.42;11.23;;;;;;;;;;5036458;28;20335;-73
2023/02/03 01:15:07;;;;;;;23.05;10.70;;;;;;;;;;5038052;28;20067;-73
2023/02/03 01:17:33;;;;;;;21.15;9.30;;;;;;;;;;5038991;28;20099;-73
2023/02/03 01:19:59;;;;;;;23.38;11.27;;;;;;;;;;5037633;28;20486;-73
2023/02/03 01:22:25;;;;;;;22.08;10.55;;;;;;;;;;5040451;28;20025;-73
2023/02/03 01:24:51;;;;;;;21.00;11.13;;;;;;;;;;5029443;28;20076;-73
2023/02/03 01:27:17;;;;;;;24.55;10.60;;;;;;;;;;5037843;28;20033;-72
2023/02/03 01:29:43;;;;;;;19.25;8.93;;;;;;;;;;5041830;28;20049;-72
2023/02/03 01:32:09;;;;;;;16.95;8.20;;;;;;;;;;5035348;28;20045;-72
2023/02/03 01:34:35;;;;;;;17.77;9.65;;;;;;;;;;5043109;28;20045;-73
2023/02/03 01:37:01;;;;;;;18.23;9.15;;;;;;;;;;5038492;28;20048;-73
2023/02/03 01:39:27;;;;;;;16.80;8.85;;;;;;;;;;5021969;28;20095;-72
2023/02/03 01:41:54;;;;;;;19.55;8.63;;;;;;;;;;5036915;28;20068;-73
2023/02/03 01:44:32;;;;;;;16.13;7.40;;;;;;;;;;5021597;28;20041;-72
2023/02/03 01:46:59;;;;;;;12.32;6.05;;;;;;;;;;5039510;28;20091;-72
2023/02/03 01:49:29;;;;;;;13.57;5.70;;;;;;;;;;5041217;28;20037;-73
2023/02/03 01:51:55;;;;;;;13.27;6.35;;;;;;;;;;5032371;28;20465;-73
2023/02/03 01:54:33;;;;;;;15.63;6.63;;;;;;;;;;5039213;28;20040;-73
2023/02/03 01:57:15;;;;;;;13.20;5.88;;;;;;;;;;5030951;28;20029;-72
2023/02/03 01:59:41;;;;;;;14.73;6.07;;;;;;;;;;5042323;28;20038;-73
2023/02/03 02:02:07;;;;;;;20.30;8.35;;;;;;;;;;5033071;28;20037;-72
2023/02/03 02:04:42;;;;;;;18.85;7.20;;;;;;;;;;5015397;28;20512;-72
2023/02/03 02:07:09;;;;;;;13.18;6.93;;;;;;;;;;5039694;28;20075;-73
2023/02/03 02:09:35;;;;;;;14.93;7.47;;;;;;;;;;5038593;28;20069;-73
2023/02/03 02:12:01;;;;;;;21.25;8.98;;;;;;;;;;5040943;28;20080;-73
2023/02/03 02:14:27;;;;;;;16.65;8.20;;;;;;;;;;5041780;28;20869;-73
2023/02/03 02:16:58;;;;;;;16.85;7.82;;;;;;;;;;5036205;28;20035;-73
2023/02/03 02:19:38;;;;;;;14.25;7.43;;;;;;;;;;5040625;28;20033;-73
2023/02/03 02:22:08;;;;;;;14.02;7.10;;;;;;;;;;5030086;28;20029;-72
2023/02/03 02:24:47;;;;;;;13.55;6.45;;;;;;;;;;5040937;28;20051;-72
2023/02/03 02:27:42;;;;;;;18.40;8.13;;;;;;;;;;5036886;28;20036;-73
2023/02/03 02:30:27;;;;;;;13.90;5.50;;;;;;;;;;5040023;28;20042;-72
2023/02/03 02:32:55;;;;;;;15.95;6.90;;;;;;;;;;5035429;28;20351;-72
2023/02/03 02:35:40;;;;;;;14.57;6.53;;;;;;;;;;5020181;28;20033;-73
2023/02/03 02:38:25;;;;;;;15.30;7.82;;;;;;;;;;5039018;28;20036;-72
2023/02/03 02:40:55;;;;;;;15.93;6.32;;;;;;;;;;5036923;28;20034;-72
2023/02/03 02:43:34;;;;;;;12.48;5.53;;;;;;;;;;5034969;28;20049;-72
2023/02/03 02:46:08;;;;;;;12.23;5.55;;;;;;;;;;5040336;28;20033;-73
2023/02/03 02:48:34;;;;;;;18.95;7.57;;;;;;;;;;5036027;28;20029;-72
2023/02/03 02:51:02;;;;;;;18.23;7.10;;;;;;;;;;5039646;28;20036;-73
2023/02/03 02:53:29;;;;;;;14.30;7.07;;;;;;;;;;5038621;28;20037;-72
2023/02/03 02:55:57;;;;;;;15.10;6.80;;;;;;;;;;5034046;28;20709;-73
2023/02/03 02:58:23;;;;;;;15.13;7.70;;;;;;;;;;5038917;28;20044;-72
2023/02/03 03:00:49;;;;;;;14.02;6.40;;;;;;;;;;5039902;28;20100;-72
2023/02/03 03:03:18;;;;;;;19.90;9.00;;;;;;;;;;5036552;28;20029;-73
2023/02/03 03:05:47;;;;;;;21.75;10.05;;;;;;;;;;5034345;28;20036;-72
2023/02/03 03:08:14;;;;;;;18.83;9.13;;;;;;;;;;5032514;28;20040;-73
2023/02/03 03:10:41;;;;;;;20.00;10.75;;;;;;;;;;5037292;28;20033;-72
2023/02/03 03:13:09;;;;;;;21.05;10.07;;;;;;;;;;5034332;28;20128;-73
2023/02/03 03:15:35;;;;;;;17.20;9.85;;;;;;;;;;5037425;28;20045;-73
2023/02/03 03:18:12;;;;;;;20.45;11.68;;;;;;;;;;5037652;28;20028;-72
2023/02/03 03:20:41;;;;;;;17.83;8.88;;;;;;;;;;5035767;28;20039;-73
2023/02/03 03:23:11;;;;;;;16.95;10.15;;;;;;;;;;5035874;28;20025;-72
2023/02/03 03:25:43;;;;;;;16.25;8.95;;;;;;;;;;5041083;28;20076;-72
2023/02/03 03:28:12;;;;;;;16.90;7.95;;;;;;;;;;5033258;28;20554;-73
2023/02/03 03:30:38;;;;;;;17.35;9.52;;;;;;;;;;5036040;28;20065;-72
2023/02/03 03:33:05;;;;;;;15.80;8.07;;;;;;;;;;5035216;28;20028;-73
2023/02/03 03:35:36;;;;;;;17.10;8.95;;;;;;;;;;5033150;28;20042;-72
2023/02/03 03:38:16;;;;;;;20.40;9.65;;;;;;;;;;5035392;28;20490;-72
2023/02/03 03:40:44;;;;;;;15.95;7.38;;;;;;;;;;5021236;28;20033;-73
2023/02/03 03:43:19;;;;;;;16.40;7.57;;;;;;;;;;5036570;28;20053;-72
2023/02/03 03:45:57;;;;;;;16.65;8.65;;;;;;;;;;5037308;28;20036;-72
2023/02/03 03:48:23;;;;;;;17.85;7.93;;;;;;;;;;5022360;28;20033;-72
2023/02/03 03:50:55;;;;;;;18.10;7.78;;;;;;;;;;5037691;28;20498;-73
2023/02/03 03:53:22;;;;;;;13.97;7.37;;;;;;;;;;5035015;28;20041;-73
2023/02/03 03:55:49;;;;;;;15.25;6.68;;;;;;;;;;5035646;28;20072;-73
2023/02/03 03:58:24;;;;;;;14.45;8.15;;;;;;;;;;5044319;28;20458;-73
2023/02/03 04:00:50;;;;;;;13.23;6.65;;;;;;;;;;5042174;28;20044;-73
2023/02/03 04:03:19;;;;;;;14.68;7.35;;;;;;;;;;5046094;28;20033;-72
2023/02/03 04:05:45;;;;;;;14.05;7.45;;;;;;;;;;5044820;28;20076;-73
2023/02/03 04:08:11;;;;;;;15.90;7.43;;;;;;;;;;5041481;28;20455;-72
2023/02/03 04:10:39;;;;;;;13.10;6.63;;;;;;;;;;5052204;28;20037;-73
2023/02/03 04:13:06;;;;;;;18.10;8.18;;;;;;;;;;5043230;28;20037;-72
2023/02/03 04:15:32;;;;;;;19.35;9.40;;;;;;;;;;5045042;28;20037;-73
2023/02/03 04:18:00;;;;;;;17.88;8.48;;;;;;;;;;5041516;28;20107;-73
2023/02/03 04:20:26;;;;;;;16.85;8.48;;;;;;;;;;5041145;28;20040;-73
2023/02/03 04:22:52;;;;;;;24.00;9.63;;;;;;;;;;5042603;28;20524;-72
2023/02/03 04:25:19;;;;;;;20.85;9.63;;;;;;;;;;5045097;28;20045;-72
2023/02/03 04:27:45;;;;;;;22.73;11.40;;;;;;;;;;5042973;28;20038;-73
2023/02/03 04:30:11;;;;;;;19.67;10.98;;;;;;;;;;5040615;28;20033;-73
2023/02/03 04:32:37;;;;;;;21.52;9.75;;;;;;;;;;5040661;28;20033;-72
2023/02/03 04:35:04;;;;;;;19.30;8.43;;;;;;;;;;5043144;28;20040;-73
2023/02/03 04:37:30;;;;;;;20.27;8.65;;;;;;;;;;5040972;28;20021;-73
2023/02/03 04:39:56;;;;;;;25.90;12.52;;;;;;;;;;5029413;28;20033;-72
2023/02/03 04:42:23;;;;;;;22.42;10.77;;;;;;;;;;5040939;28;20049;-72
2023/02/03 04:44:50;;;;;;;22.30;11.77;;;;;;;;;;5044121;28;20053;-73
2023/02/03 04:47:17;;;;;;;23.55;11.25;;;;;;;;;;5042917;28;20044;-73
2023/02/03 04:49:43;;;;;;;22.33;10.73;;;;;;;;;;5044573;28;20037;-72
2023/02/03 04:52:10;;;;;;;19.80;10.77;;;;;;;;;;5043604;28;20068;-73
2023/02/03 04:54:36;;;;;;;23.10;11.43;;;;;;;;;;5041818;28;20034;-73
2023/02/03 04:57:02;;;;;;;20.85;11.05;;;;;;;;;;5042466;28;20848;-72
2023/02/03 04:59:28;;;;;;;20.10;10.80;;;;;;;;;;5043432;28;20157;-72
2023/02/03 05:01:54;;;;;;;20.45;9.48;;;;;;;;;;5045895;28;20174;-73
2023/02/03 05:04:20;;;;;;;22.23;11.73;;;;;;;;;;5045702;28;20037;-72
2023/02/03 05:06:46;;;;;;;23.30;11.65;;;;;;;;;;5040395;28;20029;-72
2023/02/03 05:09:12;;;;;;;26.23;13.80;;;;;;;;;;5045147;28;20029;-73
2023/02/03 05:11:38;;;;;;;26.33;15.15;;;;;;;;;;5040132;28;20039;-73
2023/02/03 05:14:04;;;;;;;27.58;15.07;;;;;;;;;;5037687;28;20693;-73
2023/02/03 05:16:30;;;;;;;32.53;13.52;;;;;;;;;;5041493;28;20036;-73
2023/02/03 05:18:56;;;;;;;22.02;10.68;;;;;;;;;;5044267;28;20033;-72
2023/02/03 05:21:22;;;;;;;21.42;11.18;;;;;;;;;;5038822;28;20801;-73
2023/02/03 05:23:48;;;;;;;17.50;8.32;;;;;;;;;;5036097;28;20104;-73
2023/02/03 05:26:14;;;;;;;18.10;8.98;;;;;;;;;;5023964;28;20486;-72
2023/02/03 05:28:40;;;;;;;21.33;11.77;;;;;;;;;;5039170;28;20036;-73
2023/02/03 05:31:07;;;;;;;25.48;12.23;;;;;;;;;;5040221;28;20029;-73
2023/02/03 05:33:33;;;;;;;18.25;8.65;;;;;;;;;;5039613;28;20040;-73
2023/02/03 05:35:59;;;;;;;19.23;9.45;;;;;;;;;;5037864;28;20034;-73
2023/02/03 05:38:25;;;;;;;15.35;8.32;;;;;;;;;;5037120;28;20405;-72
2023/02/03 05:43:44;;;;;;;28.10;14.88;;;;;;;;;;4996029;28;20053;-73
2023/02/03 05:46:10;;;;;;;21.65;11.48;;;;;;;;;;5039073;28;20509;-73
2023/02/03 05:48:36;;;;;;;21.35;9.93;;;;;;;;;;5039813;28;20029;-72
2023/02/03 05:51:02;;;;;;;21.83;11.00;;;;;;;;;;5042480;28;20033;-72
2023/02/03 05:53:28;;;;;;;18.85;9.07;;;;;;;;;;5035769;28;20037;-72
2023/02/03 05:55:54;;;;;;;20.90;9.70;;;;;;;;;;5040399;28;20037;-72
2023/02/03 05:58:20;;;;;;;20.10;11.50;;;;;;;;;;5036248;28;20113;-73
2023/02/03 06:00:46;;;;;;;37.53;20.02;;;;;;;;;;5042975;28;20028;-72
2023/02/03 06:03:12;;;;;;;44.85;24.83;;;;;;;;;;5040228;28;20382;-73
2023/02/03 06:05:40;;;;;;;48.22;26.58;;;;;;;;;;5036322;28;20052;-73
2023/02/03 06:08:06;;;;;;;60.63;32.25;;;;;;;;;;5036383;28;20057;-73
2023/02/03 06:10:32;;;;;;;58.28;27.75;;;;;;;;;;5037789;28;20049;-73
2023/02/03 06:12:59;;;;;;;59.28;34.50;;;;;;;;;;5037855;28;20033;-73
2023/02/03 06:15:24;;;;;;;57.90;30.48;;;;;;;;;;5042201;28;20955;-73
2023/02/03 06:17:51;;;;;;;41.67;21.90;;;;;;;;;;5034791;28;20108;-73
2023/02/03 06:20:18;;;;;;;33.22;19.10;;;;;;;;;;5035498;28;20501;-73
2023/02/03 06:22:45;;;;;;;29.88;16.20;;;;;;;;;;5037794;28;20025;-73
2023/02/03 06:25:13;;;;;;;33.30;18.50;;;;;;;;;;5034715;28;20045;-72
2023/02/03 06:27:39;;;;;;;26.23;15.25;;;;;;;;;;5037067;28;20032;-73
2023/02/03 06:30:05;;;;;;;31.25;15.55;;;;;;;;;;5040414;28;20051;-72
2023/02/03 06:32:31;;;;;;;40.28;18.95;;;;;;;;;;5036610;28;20041;-73
2023/02/03 06:34:57;;;;;;;38.88;21.13;;;;;;;;;;5035882;28;20796;-73
2023/02/03 06:37:23;;;;;;;34.67;16.55;;;;;;;;;;5037094;28;20052;-73
2023/02/03 06:39:49;;;;;;;26.98;14.35;;;;;;;;;;5036119;28;20086;-73
2023/02/03 06:42:15;;;;;;;28.50;12.55;;;;;;;;;;5032463;28;20048;-73
2023/02/03 06:44:41;;;;;;;18.67;10.40;;;;;;;;;;5037804;28;20441;-73
2023/02/03 06:47:07;;;;;;;21.33;9.85;;;;;;;;;;5032773;28;20540;-73
2023/02/03 06:49:33;;;;;;;24.42;11.27;;;;;;;;;;5019767;28;20057;-73
2023/02/03 06:51:59;;;;;;;23.35;12.35;;;;;;;;;;5033003;28;20064;-73
2023/02/03 06:54:25;;;;;;;25.02;11.15;;;;;;;;;;5031333;28;20143;-73
2023/02/03 06:56:51;;;;;;;23.30;10.65;;;;;;;;;;5033418;28;20137;-73
2023/02/03 06:59:17;;;;;;;23.50;11.80;;;;;;;;;;5035518;28;20036;-73
2023/02/03 07:01:43;;;;;;;27.58;12.18;;;;;;;;;;5031888;28;20064;-73
2023/02/03 07:04:09;;;;;;;31.52;13.52;;;;;;;;;;5038767;28;20155;-73
2023/02/03 07:06:35;;;;;;;40.40;17.73;;;;;;;;;;5036286;28;20378;-73
2023/02/03 07:09:02;;;;;;;40.25;16.48;;;;;;;;;;5030906;28;20433;-73
2023/02/03 07:11:28;;;;;;;30.13;14.75;;;;;;;;;;5035240;28;20063;-73
2023/02/03 07:13:55;;;;;;;36.50;15.90;;;;;;;;;;5036936;28;20124;-73
2023/02/03 07:16:21;;;;;;;28.95;14.88;;;;;;;;;;5034042;28;20109;-73
2023/02/03 07:18:47;;;;;;;32.17;16.05;;;;;;;;;;5034605;28;20128;-73
2023/02/03 07:21:13;;;;;;;36.47;18.08;;;;;;;;;;5030425;28;20383;-73
2023/02/03 07:23:39;;;;;;;44.13;21.40;;;;;;;;;;5034052;28;20033;-73
2023/02/03 07:26:06;;;;;;;49.65;20.73;;;;;;;;;;5023266;28;20156;-73
2023/02/03 07:28:33;;;;;;;43.55;20.15;;;;;;;;;;5034202;28;20045;-73
2023/02/03 07:30:59;;;;;;;47.47;22.67;;;;;;;;;;5040362;28;20025;-73
2023/02/03 07:33:26;;;;;;;40.80;18.80;;;;;;;;;;5039838;28;20030;-73
2023/02/03 07:35:52;;;;;;;31.63;15.43;;;;;;;;;;5036795;28;20120;-73
2023/02/03 07:38:18;;;;;;;40.38;17.58;;;;;;;;;;5037858;28;20033;-73
2023/02/03 07:40:44;;;;;;;45.33;22.73;;;;;;;;;;5039819;28;20025;-73
2023/02/03 07:43:10;;;;;;;111.32;39.47;;;;;;;;;;5034461;28;20056;-74
2023/02/03 07:45:36;;;;;;;81.68;33.35;;;;;;;;;;5022187;28;20107;-73
2023/02/03 07:48:02;;;;;;;75.22;29.02;;;;;;;;;;5040461;28;20083;-73
2023/02/03 07:50:28;;;;;;;59.17;24.45;;;;;;;;;;5034674;28;20486;-73
2023/02/03 07:52:54;;;;;;;56.22;26.38;;;;;;;;;;5032302;28;20493;-73
2023/02/03 07:55:21;;;;;;;48.58;22.27;;;;;;;;;;5034994;28;20038;-73
2023/02/03 07:57:47;;;;;;;43.80;19.42;;;;;;;;;;5037914;28;20454;-73
2023/02/03 08:00:14;;;;;;;35.28;16.67;;;;;;;;;;5036049;28;20025;-74
2023/02/03 08:02:43;;;;;;;37.78;19.30;;;;;;;;;;5036851;28;20025;-73
2023/02/03 08:05:10;;;;;;;40.25;21.02;;;;;;;;;;5033077;28;20040;-73
2023/02/03 08:07:36;;;;;;;52.22;27.95;;;;;;;;;;5032205;28;20037;-73
2023/02/03 08:10:02;;;;;;;44.03;24.05;;;;;;;;;;5033398;28;20048;-73
2023/02/03 08:12:28;;;;;;;41.20;20.50;;;;;;;;;;5018130;28;20041;-73
2023/02/03 08:14:55;;;;;;;37.20;18.58;;;;;;;;;;5036452;28;20033;-73
2023/02/03 08:17:21;;;;;;;36.08;20.63;;;;;;;;;;5033807;28;20030;-73
2023/02/03 08:19:47;;;;;;;45.92;25.02;;;;;;;;;;5034183;28;20496;-74
2023/02/03 08:22:16;;;;;;;47.90;26.73;;;;;;;;;;5038505;28;20128;-73
2023/02/03 08:24:44;;;;;;;41.15;18.80;;;;;;;;;;5036087;28;20037;-73
2023/02/03 08:27:14;;;;;;;33.83;19.20;;;;;;;;;;5036028;28;20117;-73
2023/02/03 08:29:40;;;;;;;30.60;16.60;;;;;;;;;;5030309;28;20063;-74
2023/02/03 08:32:08;;;;;;;29.10;16.15;;;;;;;;;;5035237;28;20473;-73
2023/02/03 08:34:35;;;;;;;37.20;21.90;;;;;;;;;;5037623;28;20915;-73
2023/02/03 08:37:00;;;;;;;36.97;19.45;;;;;;;;;;5036410;28;20057;-73
2023/02/03 08:39:27;;;;;;;31.08;18.40;;;;;;;;;;5037861;28;20449;-73
2023/02/03 08:41:53;;;;;;;32.88;17.63;;;;;;;;;;5033441;28;20040;-73
2023/02/03 08:44:19;;;;;;;28.67;16.23;;;;;;;;;;5030207;28;20045;-73
2023/02/03 08:46:45;;;;;;;29.95;16.67;;;;;;;;;;5033452;28;20036;-74
2023/02/03 08:49:11;;;;;;;29.13;16.40;;;;;;;;;;5037638;28;20838;-73
2023/02/03 08:51:37;;;;;;;29.88;17.73;;;;;;;;;;5038916;28;20120;-73
2023/02/03 08:54:03;;;;;;;34.95;18.73;;;;;;;;;;5041184;28;20047;-73
2023/02/03 08:56:29;;;;;;;29.90;16.88;;;;;;;;;;5040317;28;20072;-74
2023/02/03 08:58:55;;;;;;;31.77;15.80;;;;;;;;;;5021108;28;20075;-73
2023/02/03 09:01:21;;;;;;;26.95;15.73;;;;;;;;;;5036215;28;20029;-73
2023/02/03 09:03:47;;;;;;;29.92;14.68;;;;;;;;;;5038788;28;20495;-73
2023/02/03 09:06:15;;;;;;;29.80;15.77;;;;;;;;;;5038716;28;20033;-73
2023/02/03 09:08:42;;;;;;;29.90;15.35;;;;;;;;;;5037068;28;20033;-74
2023/02/03 09:11:12;;;;;;;36.30;16.67;;;;;;;;;;5038961;28;20037;-73
2023/02/03 09:13:38;;;;;;;55.08;25.48;;;;;;;;;;5038051;28;20043;-73
2023/02/03 09:16:07;;;;;;;43.53;22.77;;;;;;;;;;5034665;28;20029;-73
2023/02/03 09:18:34;;;;;;;39.15;20.73;;;;;;;;;;5036350;28;20065;-73
2023/02/03 09:21:03;;;;;;;39.08;19.10;;;;;;;;;;5039410;28;20032;-73
2023/02/03 09:23:29;;;;;;;28.05;16.15;;;;;;;;;;5038059;28;20464;-73
2023/02/03 09:25:56;;;;;;;28.85;14.05;;;;;;;;;;5038030;28;20037;-73
2023/02/03 09:28:22;;;;;;;30.30;13.93;;;;;;;;;;5038374;28;20558;-73
2023/02/03 09:30:48;;;;;;;28.73;13.27;;;;;;;;;;5038842;28;20383;-73
2023/02/03 09:33:14;;;;;;;25.05;11.00;;;;;;;;;;5035536;28;20037;-74
2023/02/03 09:35:40;;;;;;;21.85;9.75;;;;;;;;;;5040515;28;20072;-73
2023/02/03 09:38:06;;;;;;;20.92;9.73;;;;;;;;;;5032314;28;20030;-73
2023/02/03 09:40:34;;;;;;;20.58;8.18;;;;;;;;;;5037844;28;20026;-73
2023/02/03 09:43:03;;;;;;;22.48;9.13;;;;;;;;;;5041638;28;20044;-73
2023/02/03 09:45:30;;;;;;;24.70;9.55;;;;;;;;;;5033303;28;20967;-73
2023/02/03 09:48:05;;;;;;;20.55;9.57;;;;;;;;;;5039736;28;20037;-73
2023/02/03 09:50:33;;;;;;;21.35;9.32;;;;;;;;;;5035757;28;20037;-73
2023/02/03 09:53:02;;;;;;;22.60;8.93;;;;;;;;;;5031550;28;20025;-73
2023/02/03 09:55:28;;;;;;;22.23;9.07;;;;;;;;;;5036847;28;20036;-73
2023/02/03 09:58:05;;;;;;;24.45;10.85;;;;;;;;;;5035696;28;20062;-73
2023/02/03 10:00:34;;;;;;;18.98;8.30;;;;;;;;;;5038608;28;20034;-73
2023/02/03 10:03:07;;;;;;;20.65;9.73;;;;;;;;;;5034247;28;20032;-73
2023/02/03 10:05:36;;;;;;;17.10;8.60;;;;;;;;;;5037951;28;20037;-73
2023/02/03 10:08:17;;;;;;;21.33;7.97;;;;;;;;;;5038419;28;20029;-73
2023/02/03 10:11:11;;;;;;;19.13;7.03;;;;;;;;;;5034341;28;20132;-73
2023/02/03 10:13:43;;;;;;;18.55;6.25;;;;;;;;;;5040062;28;20059;-73
2023/02/03 10:16:12;;;;;;;15.00;5.75;;;;;;;;;;5037459;28;20079;-73
2023/02/03 10:18:45;;;;;;;43.28;18.73;;;;;;;;;;5036586;28;20033;-73
2023/02/03 10:21:17;;;;;;;27.23;12.60;;;;;;;;;;5037679;28;20033;-73
2023/02/03 10:23:43;;;;;;;;;;;;;;;;;;5039261;28;20037;-73
2023/02/03 10:26:21;;;;;;;15.20;7.40;;;;;;;;;;5035446;28;19913;-74
2023/02/03 10:28:53;;;;;;;14.50;6.35;;;;;;;;;;5034200;28;20048;-73
2023/02/03 10:31:21;;;;;;;14.57;6.85;;;;;;;;;;5037376;28;20358;-73
2023/02/03 10:33:49;;;;;;;13.23;6.82;;;;;;;;;;5040363;28;20857;-73
2023/02/03 10:36:18;;;;;;;16.88;6.03;;;;;;;;;;5038479;28;20111;-73
2023/02/03 10:38:44;;;;;;;13.18;5.03;;;;;;;;;;5038833;28;20470;-74
2023/02/03 10:41:10;;;;;;;10.65;5.18;;;;;;;;;;5040387;28;20030;-73
2023/02/03 10:43:46;;;;;;;13.35;5.65;;;;;;;;;;5037713;28;20045;-73
2023/02/03 10:46:12;;;;;;;12.35;5.57;;;;;;;;;;5034068;28;20072;-73
2023/02/03 10:48:38;;;;;;;12.57;4.85;;;;;;;;;;5035292;28;20025;-74
2023/02/03 10:51:04;;;;;;;12.15;5.35;;;;;;;;;;5038381;28;20028;-74
2023/02/03 10:53:34;;;;;;;11.32;3.78;;;;;;;;;;5035934;28;20102;-73
2023/02/03 10:56:02;;;;;;;6.05;2.53;;;;;;;;;;5031764;28;20095;-73
2023/02/03 10:58:30;;;;;;;7.75;1.90;;;;;;;;;;5035104;28;20033;-73
2023/02/03 11:00:58;;;;;;;9.43;2.05;;;;;;;;;;5032825;28;20374;-73
2023/02/03 11:03:28;;;;;;;9.13;2.40;;;;;;;;;;5032769;28;20033;-74
2023/02/03 11:06:14;;;;;;;12.65;4.05;;;;;;;;;;5036204;28;20044;-73
2023/02/03 11:08:42;;;;;;;11.60;3.85;;;;;;;;;;5041659;28;20037;-73
2023/02/03 11:11:09;;;;;;;12.48;3.47;;;;;;;;;;5041953;28;20033;-73
2023/02/03 11:13:36;;;;;;;9.82;2.92;;;;;;;;;;5036559;28;20069;-74
2023/02/03 11:16:13;;;;;;;9.52;2.90;;;;;;;;;;5036262;28;20029;-73
2023/02/03 11:18:53;;;;;;;9.98;3.53;;;;;;;;;;5039524;28;20746;-73
2023/02/03 11:21:21;;;;;;;10.63;3.67;;;;;;;;;;5035922;28;20059;-73
2023/02/03 11:24:01;;;;;;;12.25;4.35;;;;;;;;;;5031864;28;20040;-74
2023/02/03 11:26:32;;;;;;;12.75;5.50;;;;;;;;;;5036388;28;20076;-73
2023/02/03 11:29:00;;;;;;;14.05;5.03;;;;;;;;;;5031851;28;20030;-74
2023/02/03 11:31:27;;;;;;;17.30;8.13;;;;;;;;;;5032986;28;20455;-73
2023/02/03 11:33:58;;;;;;;20.25;8.15;;;;;;;;;;5031059;28;20025;-74
2023/02/03 11:36:26;;;;;;;14.45;6.85;;;;;;;;;;5032113;28;20037;-73
2023/02/03 11:38:52;;;;;;;12.90;5.30;;;;;;;;;;5033080;28;20025;-74
2023/02/03 11:41:19;;;;;;;11.05;5.15;;;;;;;;;;5021519;28;20033;-74
2023/02/03 11:43:45;;;;;;;9.55;4.75;;;;;;;;;;5018707;28;20128;-73
2023/02/03 11:46:12;;;;;;;11.63;5.10;;;;;;;;;;5028903;28;20601;-73
2023/02/03 11:48:40;;;;;;;16.80;4.97;;;;;;;;;;5036477;28;20033;-73
2023/02/03 11:51:06;;;;;;;8.15;3.63;;;;;;;;;;5034059;28;20039;-74
2023/02/03 11:53:45;;;;;;;9.82;3.63;;;;;;;;;;5035510;28;20033;-73
2023/02/03 11:56:27;;;;;;;12.23;4.57;;;;;;;;;;5034128;28;20029;-74
2023/02/03 11:58:52;;;;;;;16.33;6.57;;;;;;;;;;5036748;28;20040;-74
2023/02/03 12:01:25;;;;;;;17.70;8.57;;;;;;;;;;5037162;28;20501;-73
2023/02/03 12:03:51;;;;;;;;;;;;;;;;;;5032755;28;20072;-74
2023/02/03 12:06:36;;;;;;;19.45;6.13;;;;;;;;;;5014493;28;19913;-73
2023/02/03 12:09:21;;;;;;;15.77;4.45;;;;;;;;;;5030608;28;20068;-73
2023/02/03 12:11:59;;;;;;;9.45;3.25;;;;;;;;;;5033223;28;20073;-73
2023/02/03 12:14:31;;;;;;;7.90;2.70;;;;;;;;;;5030329;28;20052;-74
2023/02/03 12:17:12;;;;;;;8.27;2.63;;;;;;;;;;5034335;28;20112;-73
2023/02/03 12:19:44;;;;;;;6.88;2.13;;;;;;;;;;5037255;28;20038;-74
2023/02/03 12:22:10;;;;;;;;;;;;;;;;;;5027529;28;20520;-74
2023/02/03 12:24:43;;;;;;;10.63;3.92;;;;;;;;;;5040401;28;19921;-74
2023/02/03 12:27:18;;;;;;;8.75;2.58;;;;;;;;;;5036371;28;20513;-74
2023/02/03 12:30:10;;;;;;;11.52;3.88;;;;;;;;;;5037668;28;20108;-74
2023/02/03 12:32:40;;;;;;;11.63;3.45;;;;;;;;;;5033148;28;20045;-74
2023/02/03 12:35:27;;;;;;;8.38;2.95;;;;;;;;;;5040013;28;20608;-74
2023/02/03 12:38:02;;;;;;;7.30;2.80;;;;;;;;;;5040433;28;20029;-74
2023/02/03 12:40:35;;;;;;;8.23;2.00;;;;;;;;;;5038260;28;20080;-73
2023/02/03 12:43:20;;;;;;;6.90;2.20;;;;;;;;;;5038896;28;20049;-73
2023/02/03 12:45:54;;;;;;;7.55;2.00;;;;;;;;;;5037764;28;20375;-74
2023/02/03 12:48:22;;;;;;;5.28;1.70;;;;;;;;;;5037706;28;20055;-73
2023/02/03 12:50:50;;;;;;;6.30;1.75;;;;;;;;;;5037842;28;20081;-74
2023/02/03 12:53:48;;;;;;;5.18;1.85;;;;;;;;;;5041959;28;20057;-74
2023/02/03 12:56:16;;;;;;;9.55;2.58;;;;;;;;;;5001861;28;20670;-73
2023/02/03 12:58:45;;;;;;;13.75;4.57;;;;;;;;;;5038870;28;20025;-74
2023/02/03 13:01:34;;;;;;;9.95;3.03;;;;;;;;;;5038888;28;20029;-73
2023/02/03 13:04:19;;;;;;;9.95;3.03;;;;;;;;;;5032038;28;20533;-73
2023/02/03 13:07:00;;;;;;;8.95;2.97;;;;;;;;;;5037645;28;20033;-74
2023/02/03 13:09:41;;;;;;;6.25;2.25;;;;;;;;;;5036996;28;20079;-74
2023/02/03 13:12:13;;;;;;;9.70;2.15;;;;;;;;;;5035433;28;20033;-74
2023/02/03 13:14:38;;;;;;;6.97;2.10;;;;;;;;;;5039991;28;20078;-74
2023/02/03 13:17:13;;;;;;;9.77;2.47;;;;;;;;;;5033768;28;20026;-73
2023/02/03 13:19:41;;;;;;;7.38;2.47;;;;;;;;;;5037846;28;20025;-73
2023/02/03 13:22:11;;;;;;;8.43;2.50;;;;;;;;;;5033452;28;20833;-74
2023/02/03 13:24:39;;;;;;;6.38;2.25;;;;;;;;;;5038812;28;20041;-73
2023/02/03 13:27:21;;;;;;;8.38;2.30;;;;;;;;;;5033475;28;20036;-73
2023/02/03 13:29:59;;;;;;;10.75;3.20;;;;;;;;;;5037581;28;20719;-73
2023/02/03 13:32:31;;;;;;;12.02;2.75;;;;;;;;;;5034834;28;20069;-73
2023/02/03 13:35:16;;;;;;;6.32;1.60;;;;;;;;;;5034935;28;20095;-73
2023/02/03 13:37:42;;;;;;;6.07;1.42;;;;;;;;;;5040465;28;20029;-73
2023/02/03 13:40:20;;;;;;;7.28;1.20;;;;;;;;;;5037714;28;20371;-73
2023/02/03 13:42:48;;;;;;;8.23;2.08;;;;;;;;;;5035653;28;20056;-73
2023/02/03 13:45:31;;;;;;;6.28;1.55;;;;;;;;;;5040029;28;20079;-73
2023/02/03 13:48:07;;;;;;;8.48;1.83;;;;;;;;;;5038508;28;20043;-73
2023/02/03 13:50:33;;;;;;;7.60;2.03;;;;;;;;;;5033643;28;20037;-73
2023/02/03 13:53:01;;;;;;;8.88;2.53;;;;;;;;;;5038798;28;20039;-73
2023/02/03 13:55:38;;;;;;;12.10;3.95;;;;;;;;;;5035121;28;20237;-73
2023/02/03 13:58:05;;;;;;;14.63;3.30;;;;;;;;;;5034719;28;20876;-73
2023/02/03 14:00:43;;;;;;;6.93;2.00;;;;;;;;;;5019156;28;20352;-73
2023/02/03 14:03:18;;;;;;;8.35;2.10;;;;;;;;;;5041001;28;20119;-73
2023/02/03 14:05:49;;;;;;;10.35;3.05;;;;;;;;;;5039860;28;20497;-73
2023/02/03 14:08:27;;;;;;;10.52;4.35;;;;;;;;;;5032489;28;20477;-73
2023/02/03 14:11:12;;;;;;;12.48;4.75;;;;;;;;;;5034866;28;20040;-74
2023/02/03 14:13:38;;;;;;;15.30;6.70;;;;;;;;;;5037899;28;20096;-73
2023/02/03 14:16:14;;;;;;;12.35;3.97;;;;;;;;;;5036830;28;20792;-73
2023/02/03 14:18:44;;;;;;;13.93;3.10;;;;;;;;;;5032034;28;20036;-73
2023/02/03 14:21:24;;;;;;;9.55;2.80;;;;;;;;;;5034019;28;20026;-73
2023/02/03 14:23:52;;;;;;;11.18;4.15;;;;;;;;;;5035624;28;20039;-73
2023/02/03 14:26:29;;;;;;;8.82;3.15;;;;;;;;;;5039023;28;20037;-73
2023/02/03 14:28:55;;;;;;;10.35;3.10;;;;;;;;;;5038150;28;20032;-74
2023/02/03 14:31:23;;;;;;;8.02;2.40;;;;;;;;;;5034736;28;20037;-73
2023/02/03 14:33:50;;;;;;;6.00;2.20;;;;;;;;;;5038373;28;20111;-73
2023/02/03 14:36:27;;;;;;;9.23;2.38;;;;;;;;;;5036469;28;20397;-73
2023/02/03 14:38:53;;;;;;;12.85;3.28;;;;;;;;;;5032915;28;20099;-73
2023/02/03 14:41:26;;;;;;;7.68;2.80;;;;;;;;;;5021092;28;20033;-73